sensor_id;sensor_type;location;lat;lon;timestamp;P1;durP1;ratioP1;P2;durP2;ratioP2
28934;SDS011;16044;52.726;-2.108;2023-06-22T00:02:35;8.70;;;4.63;;
28934;SDS011;16044;52.726;-2.108;2023-06-22T00:05:06;6.10;;;4.72;;
28934;SDS011;16044;52.726;-2.108;2023-06-22T00:07:39;15.50;;;4.82;;
28934;SDS011;16044;52.726;-2.108;2023-06-22T00:10:10;7.38;;;4.53;;
28934;SDS011;16044;52.726;-2.108;2023-06-22T00:12:41;9.75;;;5.07;;
28934;SDS011;16044;52.726;-2.108;2023-06-22T00:15:11;11.50;;;4.88;;
28934;SDS011;16044;52.726;-2.108;2023-06-22T00:17:42;8.95;;;4.85;;
28934;SDS011;16044;52.726;-2.108;2023-06-22T00:20:13;9.25;;;4.97;;
28934;SDS011;16044;52.726;-2.108;2023-06-22T00:22:47;7.40;;;4.82;;
28934;SDS011;16044;52.726;-2.108;2023-06-22T00:25:18;8.60;;;5.03;;
28934;SDS011;16044;52.726;-2.108;2023-06-22T00:27:49;9.32;;;5.03;;
28934;SDS011;16044;52.726;-2.108;2023-06-22T00:30:20;10.57;;;5.40;;
28934;SDS011;16044;52.726;-2.108;2023-06-22T00:32:50;7.72;;;5.18;;
28934;SDS011;16044;52.726;-2.108;2023-06-22T00:35:21;9.02;;;5.00;;
28934;SDS011;16044;52.726;-2.108;2023-06-22T00:37:58;12.60;;;5.25;;
28934;SDS011;16044;52.726;-2.108;2023-06-22T00:40:31;16.35;;;5.00;;
28934;SDS011;16044;52.726;-2.108;2023-06-22T00:43:03;10.98;;;5.13;;
28934;SDS011;16044;52.726;-2.108;2023-06-22T00:45:34;5.97;;;5.07;;
28934;SDS011;16044;52.726;-2.108;2023-06-22T00:48:05;6.72;;;4.80;;
28934;SDS011;16044;52.726;-2.108;2023-06-22T00:50:37;9.15;;;5.10;;
28934;SDS011;16044;52.726;-2.108;2023-06-22T00:53:12;11.73;;;5.30;;
28934;SDS011;16044;52.726;-2.108;2023-06-22T00:55:45;7.45;;;4.78;;
28934;SDS011;16044;52.726;-2.108;2023-06-22T00:58:18;8.98;;;4.90;;
28934;SDS011;16044;52.726;-2.108;2023-06-22T01:00:52;10.05;;;5.38;;
28934;SDS011;16044;52.726;-2.108;2023-06-22T01:03:22;10.77;;;5.05;;
28934;SDS011;16044;52.726;-2.108;2023-06-22T01:05:54;6.28;;;4.15;;
28934;SDS011;16044;52.726;-2.108;2023-06-22T01:08:44;6.88;;;4.70;;
28934;SDS011;16044;52.726;-2.108;2023-06-22T01:11:24;9.80;;;5.40;;
28934;SDS011;16044;52.726;-2.108;2023-06-22T01:14:04;7.45;;;4.80;;
28934;SDS011;16044;52.726;-2.108;2023-06-22T01:16:42;7.85;;;5.03;;
28934;SDS011;16044;52.726;-2.108;2023-06-22T01:19:19;9.23;;;5.05;;
28934;SDS011;16044;52.726;-2.108;2023-06-22T01:22:03;11.63;;;5.38;;
28934;SDS011;16044;52.726;-2.108;2023-06-22T01:24:45;7.70;;;5.40;;
28934;SDS011;16044;52.726;-2.108;2023-06-22T01:27:31;10.88;;;5.15;;
28934;SDS011;16044;52.726;-2.108;2023-06-22T01:30:15;13.85;;;5.60;;
28934;SDS011;16044;52.726;-2.108;2023-06-22T01:32:48;8.00;;;5.18;;
28934;SDS011;16044;52.726;-2.108;2023-06-22T01:35:21;10.73;;;5.63;;
28934;SDS011;16044;52.726;-2.108;2023-06-22T01:37:53;9.57;;;5.90;;
28934;SDS011;16044;52.726;-2.108;2023-06-22T01:40:25;13.13;;;5.20;;
28934;SDS011;16044;52.726;-2.108;2023-06-22T01:42:57;13.25;;;5.85;;
28934;SDS011;16044;52.726;-2.108;2023-06-22T01:45:32;10.43;;;5.53;;
28934;SDS011;16044;52.726;-2.108;2023-06-22T01:48:03;8.43;;;5.43;;
28934;SDS011;16044;52.726;-2.108;2023-06-22T01:50:34;9.57;;;5.28;;
28934;SDS011;16044;52.726;-2.108;2023-06-22T01:53:05;10.10;;;5.90;;
28934;SDS011;16044;52.726;-2.108;2023-06-22T01:55:36;11.75;;;5.57;;
28934;SDS011;16044;52.726;-2.108;2023-06-22T01:58:07;9.90;;;5.78;;
28934;SDS011;16044;52.726;-2.108;2023-06-22T02:00:40;10.48;;;5.80;;
28934;SDS011;16044;52.726;-2.108;2023-06-22T02:03:19;10.10;;;5.63;;
28934;SDS011;16044;52.726;-2.108;2023-06-22T02:05:54;8.63;;;5.90;;
28934;SDS011;16044;52.726;-2.108;2023-06-22T02:08:35;10.07;;;6.03;;
28934;SDS011;16044;52.726;-2.108;2023-06-22T02:11:14;10.82;;;5.80;;
28934;SDS011;16044;52.726;-2.108;2023-06-22T02:13:48;9.13;;;5.55;;
28934;SDS011;16044;52.726;-2.108;2023-06-22T02:16:22;13.70;;;6.57;;
28934;SDS011;16044;52.726;-2.108;2023-06-22T02:18:56;10.10;;;6.28;;
28934;SDS011;16044;52.726;-2.108;2023-06-22T02:21:30;12.65;;;6.15;;
28934;SDS011;16044;52.726;-2.108;2023-06-22T02:24:01;10.95;;;6.13;;
28934;SDS011;16044;52.726;-2.108;2023-06-22T02:26:32;9.13;;;5.53;;
28934;SDS011;16044;52.726;-2.108;2023-06-22T02:29:03;11.93;;;6.25;;
28934;SDS011;16044;52.726;-2.108;2023-06-22T02:31:36;9.80;;;6.20;;
28934;SDS011;16044;52.726;-2.108;2023-06-22T02:34:07;13.05;;;6.63;;
28934;SDS011;16044;52.726;-2.108;2023-06-22T02:36:45;19.77;;;6.97;;
28934;SDS011;16044;52.726;-2.108;2023-06-22T02:39:22;12.00;;;6.80;;
28934;SDS011;16044;52.726;-2.108;2023-06-22T02:41:54;14.80;;;7.25;;
28934;SDS011;16044;52.726;-2.108;2023-06-22T02:44:25;17.33;;;7.20;;
28934;SDS011;16044;52.726;-2.108;2023-06-22T02:46:58;12.45;;;7.20;;
28934;SDS011;16044;52.726;-2.108;2023-06-22T02:49:29;13.63;;;6.88;;
28934;SDS011;16044;52.726;-2.108;2023-06-22T02:52:00;15.80;;;7.85;;
28934;SDS011;16044;52.726;-2.108;2023-06-22T02:54:30;13.95;;;7.90;;
28934;SDS011;16044;52.726;-2.108;2023-06-22T02:57:02;15.80;;;7.63;;
28934;SDS011;16044;52.726;-2.108;2023-06-22T02:59:40;14.38;;;7.85;;
28934;SDS011;16044;52.726;-2.108;2023-06-22T03:02:13;14.55;;;7.93;;
28934;SDS011;16044;52.726;-2.108;2023-06-22T03:04:44;14.65;;;7.85;;
28934;SDS011;16044;52.726;-2.108;2023-06-22T03:07:15;14.15;;;7.90;;
28934;SDS011;16044;52.726;-2.108;2023-06-22T03:09:46;14.73;;;8.20;;
28934;SDS011;16044;52.726;-2.108;2023-06-22T03:12:17;9.90;;;7.35;;
28934;SDS011;16044;52.726;-2.108;2023-06-22T03:14:48;17.23;;;8.80;;
28934;SDS011;16044;52.726;-2.108;2023-06-22T03:17:21;13.10;;;8.02;;
28934;SDS011;16044;52.726;-2.108;2023-06-22T03:19:52;12.55;;;7.57;;
28934;SDS011;16044;52.726;-2.108;2023-06-22T03:22:23;12.43;;;8.02;;
28934;SDS011;16044;52.726;-2.108;2023-06-22T03:24:54;21.58;;;8.30;;
28934;SDS011;16044;52.726;-2.108;2023-06-22T03:27:24;11.98;;;7.85;;
28934;SDS011;16044;52.726;-2.108;2023-06-22T03:29:56;13.18;;;7.88;;
28934;SDS011;16044;52.726;-2.108;2023-06-22T03:32:29;14.13;;;8.38;;
28934;SDS011;16044;52.726;-2.108;2023-06-22T03:35:00;16.45;;;8.32;;
28934;SDS011;16044;52.726;-2.108;2023-06-22T03:37:30;15.05;;;8.43;;
28934;SDS011;16044;52.726;-2.108;2023-06-22T03:40:00;15.10;;;9.20;;
28934;SDS011;16044;52.726;-2.108;2023-06-22T03:42:33;12.75;;;8.93;;
28934;SDS011;16044;52.726;-2.108;2023-06-22T03:45:04;14.93;;;9.07;;
28934;SDS011;16044;52.726;-2.108;2023-06-22T03:47:39;14.68;;;8.75;;
28934;SDS011;16044;52.726;-2.108;2023-06-22T03:50:09;14.68;;;8.70;;
28934;SDS011;16044;52.726;-2.108;2023-06-22T03:52:40;20.17;;;10.05;;
28934;SDS011;16044;52.726;-2.108;2023-06-22T03:55:10;15.23;;;10.18;;
28934;SDS011;16044;52.726;-2.108;2023-06-22T03:57:41;15.82;;;10.25;;
28934;SDS011;16044;52.726;-2.108;2023-06-22T04:00:12;15.20;;;10.50;;
28934;SDS011;16044;52.726;-2.108;2023-06-22T04:02:47;16.45;;;9.57;;
28934;SDS011;16044;52.726;-2.108;2023-06-22T04:05:18;14.45;;;10.02;;
28934;SDS011;16044;52.726;-2.108;2023-06-22T04:07:48;12.02;;;9.60;;
28934;SDS011;16044;52.726;-2.108;2023-06-22T04:10:18;18.88;;;11.70;;
28934;SDS011;16044;52.726;-2.108;2023-06-22T04:12:49;18.77;;;9.88;;
28934;SDS011;16044;52.726;-2.108;2023-06-22T04:15:20;19.23;;;11.18;;
28934;SDS011;16044;52.726;-2.108;2023-06-22T04:17:54;13.95;;;9.38;;
28934;SDS011;16044;52.726;-2.108;2023-06-22T04:20:25;17.83;;;11.38;;
28934;SDS011;16044;52.726;-2.108;2023-06-22T04:22:55;15.98;;;11.15;;
28934;SDS011;16044;52.726;-2.108;2023-06-22T04:25:26;16.95;;;11.05;;
28934;SDS011;16044;52.726;-2.108;2023-06-22T04:27:56;15.75;;;10.93;;
28934;SDS011;16044;52.726;-2.108;2023-06-22T04:30:29;16.70;;;10.95;;
28934;SDS011;16044;52.726;-2.108;2023-06-22T04:33:05;15.98;;;11.48;;
28934;SDS011;16044;52.726;-2.108;2023-06-22T04:35:36;20.20;;;11.35;;
28934;SDS011;16044;52.726;-2.108;2023-06-22T04:38:07;15.02;;;10.88;;
28934;SDS011;16044;52.726;-2.108;2023-06-22T04:40:39;15.88;;;10.60;;
28934;SDS011;16044;52.726;-2.108;2023-06-22T04:43:10;15.48;;;11.25;;
28934;SDS011;16044;52.726;-2.108;2023-06-22T04:45:40;19.88;;;11.00;;
28934;SDS011;16044;52.726;-2.108;2023-06-22T04:48:13;17.48;;;10.73;;
28934;SDS011;16044;52.726;-2.108;2023-06-22T04:50:44;18.15;;;11.75;;
28934;SDS011;16044;52.726;-2.108;2023-06-22T04:53:14;15.07;;;10.63;;
28934;SDS011;16044;52.726;-2.108;2023-06-22T04:55:45;18.83;;;11.80;;
28934;SDS011;16044;52.726;-2.108;2023-06-22T04:58:15;15.43;;;11.30;;
28934;SDS011;16044;52.726;-2.108;2023-06-22T05:00:48;14.70;;;11.15;;
28934;SDS011;16044;52.726;-2.108;2023-06-22T05:03:21;15.32;;;11.07;;
28934;SDS011;16044;52.726;-2.108;2023-06-22T05:05:52;15.23;;;10.25;;
28934;SDS011;16044;52.726;-2.108;2023-06-22T05:08:23;14.25;;;10.35;;
28934;SDS011;16044;52.726;-2.108;2023-06-22T05:10:55;14.30;;;10.65;;
28934;SDS011;16044;52.726;-2.108;2023-06-22T05:13:31;16.02;;;11.32;;
28934;SDS011;16044;52.726;-2.108;2023-06-22T05:16:02;16.08;;;10.25;;
28934;SDS011;16044;52.726;-2.108;2023-06-22T05:18:36;17.02;;;10.40;;
28934;SDS011;16044;52.726;-2.108;2023-06-22T05:21:06;13.23;;;10.20;;
28934;SDS011;16044;52.726;-2.108;2023-06-22T05:23:36;12.57;;;8.82;;
28934;SDS011;16044;52.726;-2.108;2023-06-22T05:26:07;14.32;;;10.38;;
28934;SDS011;16044;52.726;-2.108;2023-06-22T05:28:38;11.60;;;8.20;;
28934;SDS011;16044;52.726;-2.108;2023-06-22T05:31:08;13.30;;;9.52;;
28934;SDS011;16044;52.726;-2.108;2023-06-22T05:33:41;12.30;;;8.65;;
28934;SDS011;16044;52.726;-2.108;2023-06-22T05:36:13;10.85;;;9.02;;
28934;SDS011;16044;52.726;-2.108;2023-06-22T05:38:46;12.85;;;8.30;;
28934;SDS011;16044;52.726;-2.108;2023-06-22T05:41:17;11.23;;;8.65;;
28934;SDS011;16044;52.726;-2.108;2023-06-22T05:43:47;15.52;;;10.48;;
28934;SDS011;16044;52.726;-2.108;2023-06-22T05:46:18;14.20;;;9.52;;
28934;SDS011;16044;52.726;-2.108;2023-06-22T05:48:51;12.07;;;8.38;;
28934;SDS011;16044;52.726;-2.108;2023-06-22T05:51:22;11.20;;;8.35;;
28934;SDS011;16044;52.726;-2.108;2023-06-22T05:53:52;14.13;;;9.52;;
28934;SDS011;16044;52.726;-2.108;2023-06-22T05:56:22;13.20;;;8.93;;
28934;SDS011;16044;52.726;-2.108;2023-06-22T05:58:53;12.55;;;8.80;;
28934;SDS011;16044;52.726;-2.108;2023-06-22T06:01:23;14.25;;;9.27;;
28934;SDS011;16044;52.726;-2.108;2023-06-22T06:03:57;15.18;;;10.43;;
28934;SDS011;16044;52.726;-2.108;2023-06-22T06:06:27;18.40;;;10.15;;
28934;SDS011;16044;52.726;-2.108;2023-06-22T06:08:58;16.48;;;10.32;;
28934;SDS011;16044;52.726;-2.108;2023-06-22T06:11:28;13.68;;;9.77;;
28934;SDS011;16044;52.726;-2.108;2023-06-22T06:13:58;13.60;;;9.57;;
28934;SDS011;16044;52.726;-2.108;2023-06-22T06:16:29;14.27;;;9.85;;
28934;SDS011;16044;52.726;-2.108;2023-06-22T06:19:02;14.75;;;9.38;;
28934;SDS011;16044;52.726;-2.108;2023-06-22T06:21:32;13.32;;;9.35;;
28934;SDS011;16044;52.726;-2.108;2023-06-22T06:24:03;16.05;;;10.02;;
28934;SDS011;16044;52.726;-2.108;2023-06-22T06:26:34;13.63;;;9.65;;
28934;SDS011;16044;52.726;-2.108;2023-06-22T06:29:06;13.70;;;9.63;;
28934;SDS011;16044;52.726;-2.108;2023-06-22T06:31:36;15.18;;;9.40;;
28934;SDS011;16044;52.726;-2.108;2023-06-22T06:34:09;10.90;;;8.32;;
28934;SDS011;16044;52.726;-2.108;2023-06-22T06:36:40;10.95;;;8.45;;
28934;SDS011;16044;52.726;-2.108;2023-06-22T06:39:11;15.95;;;9.38;;
28934;SDS011;16044;52.726;-2.108;2023-06-22T06:41:42;12.65;;;8.15;;
28934;SDS011;16044;52.726;-2.108;2023-06-22T06:44:13;13.85;;;9.00;;
28934;SDS011;16044;52.726;-2.108;2023-06-22T06:46:43;14.90;;;8.75;;
28934;SDS011;16044;52.726;-2.108;2023-06-22T06:49:16;13.38;;;8.65;;
28934;SDS011;16044;52.726;-2.108;2023-06-22T06:51:46;15.07;;;8.45;;
28934;SDS011;16044;52.726;-2.108;2023-06-22T06:54:17;12.40;;;8.45;;
28934;SDS011;16044;52.726;-2.108;2023-06-22T06:56:48;13.15;;;8.38;;
28934;SDS011;16044;52.726;-2.108;2023-06-22T06:59:18;11.07;;;7.88;;
28934;SDS011;16044;52.726;-2.108;2023-06-22T07:01:48;16.73;;;9.20;;
28934;SDS011;16044;52.726;-2.108;2023-06-22T07:04:22;12.25;;;8.32;;
28934;SDS011;16044;52.726;-2.108;2023-06-22T07:06:52;10.90;;;7.97;;
28934;SDS011;16044;52.726;-2.108;2023-06-22T07:09:22;12.65;;;7.90;;
28934;SDS011;16044;52.726;-2.108;2023-06-22T07:11:53;11.18;;;8.45;;
28934;SDS011;16044;52.726;-2.108;2023-06-22T07:14:23;10.52;;;8.35;;
28934;SDS011;16044;52.726;-2.108;2023-06-22T07:16:53;10.00;;;7.60;;
28934;SDS011;16044;52.726;-2.108;2023-06-22T07:19:27;10.35;;;7.32;;
28934;SDS011;16044;52.726;-2.108;2023-06-22T07:21:58;10.43;;;7.57;;
28934;SDS011;16044;52.726;-2.108;2023-06-22T07:24:28;12.90;;;7.68;;
28934;SDS011;16044;52.726;-2.108;2023-06-22T07:26:59;9.82;;;7.13;;
28934;SDS011;16044;52.726;-2.108;2023-06-22T07:29:31;11.25;;;7.80;;
28934;SDS011;16044;52.726;-2.108;2023-06-22T07:32:03;10.98;;;7.45;;
28934;SDS011;16044;52.726;-2.108;2023-06-22T07:34:37;9.57;;;7.05;;
28934;SDS011;16044;52.726;-2.108;2023-06-22T07:37:08;8.45;;;5.25;;
28934;SDS011;16044;52.726;-2.108;2023-06-22T07:39:38;9.00;;;5.45;;
28934;SDS011;16044;52.726;-2.108;2023-06-22T07:42:09;8.13;;;4.78;;
28934;SDS011;16044;52.726;-2.108;2023-06-22T07:44:39;6.35;;;4.45;;
28934;SDS011;16044;52.726;-2.108;2023-06-22T07:47:09;7.95;;;5.18;;
28934;SDS011;16044;52.726;-2.108;2023-06-22T07:49:42;7.47;;;4.80;;
28934;SDS011;16044;52.726;-2.108;2023-06-22T07:52:13;5.60;;;4.45;;
28934;SDS011;16044;52.726;-2.108;2023-06-22T07:54:43;6.35;;;4.47;;
28934;SDS011;16044;52.726;-2.108;2023-06-22T07:57:13;7.47;;;4.57;;
28934;SDS011;16044;52.726;-2.108;2023-06-22T07:59:44;8.00;;;4.75;;
28934;SDS011;16044;52.726;-2.108;2023-06-22T08:02:14;10.55;;;4.78;;
28934;SDS011;16044;52.726;-2.108;2023-06-22T08:04:47;5.65;;;4.25;;
28934;SDS011;16044;52.726;-2.108;2023-06-22T08:07:23;5.05;;;3.85;;
28934;SDS011;16044;52.726;-2.108;2023-06-22T08:09:54;5.85;;;4.10;;
28934;SDS011;16044;52.726;-2.108;2023-06-22T08:12:24;7.80;;;4.57;;
28934;SDS011;16044;52.726;-2.108;2023-06-22T08:14:54;8.32;;;3.97;;
28934;SDS011;16044;52.726;-2.108;2023-06-22T08:17:25;8.88;;;4.60;;
28934;SDS011;16044;52.726;-2.108;2023-06-22T08:19:58;6.53;;;4.13;;
28934;SDS011;16044;52.726;-2.108;2023-06-22T08:22:32;6.32;;;4.25;;
28934;SDS011;16044;52.726;-2.108;2023-06-22T08:25:03;8.32;;;4.35;;
28934;SDS011;16044;52.726;-2.108;2023-06-22T08:27:35;5.80;;;4.15;;
28934;SDS011;16044;52.726;-2.108;2023-06-22T08:30:06;7.05;;;4.45;;
28934;SDS011;16044;52.726;-2.108;2023-06-22T08:32:38;6.03;;;4.35;;
28934;SDS011;16044;52.726;-2.108;2023-06-22T08:35:11;5.90;;;4.60;;
28934;SDS011;16044;52.726;-2.108;2023-06-22T08:37:42;6.80;;;4.20;;
28934;SDS011;16044;52.726;-2.108;2023-06-22T08:42:47;7.80;;;5.10;;
28934;SDS011;16044;52.726;-2.108;2023-06-22T08:45:18;7.22;;;4.55;;
28934;SDS011;16044;52.726;-2.108;2023-06-22T08:47:49;6.22;;;4.95;;
28934;SDS011;16044;52.726;-2.108;2023-06-22T08:50:22;6.93;;;4.72;;
28934;SDS011;16044;52.726;-2.108;2023-06-22T08:52:53;5.35;;;4.25;;
28934;SDS011;16044;52.726;-2.108;2023-06-22T08:55:24;6.97;;;4.65;;
28934;SDS011;16044;52.726;-2.108;2023-06-22T08:57:55;10.60;;;5.03;;
28934;SDS011;16044;52.726;-2.108;2023-06-22T09:00:25;7.03;;;4.60;;
28934;SDS011;16044;52.726;-2.108;2023-06-22T09:02:59;8.15;;;4.95;;
28934;SDS011;16044;52.726;-2.108;2023-06-22T09:05:32;6.07;;;4.20;;
28934;SDS011;16044;52.726;-2.108;2023-06-22T09:08:03;7.47;;;4.80;;
28934;SDS011;16044;52.726;-2.108;2023-06-22T09:10:33;7.78;;;5.00;;
28934;SDS011;16044;52.726;-2.108;2023-06-22T09:13:04;9.10;;;5.20;;
28934;SDS011;16044;52.726;-2.108;2023-06-22T09:15:34;7.05;;;4.70;;
28934;SDS011;16044;52.726;-2.108;2023-06-22T09:18:05;6.07;;;4.75;;
28934;SDS011;16044;52.726;-2.108;2023-06-22T09:20:38;5.65;;;4.47;;
28934;SDS011;16044;52.726;-2.108;2023-06-22T09:23:09;6.38;;;4.57;;
28934;SDS011;16044;52.726;-2.108;2023-06-22T09:25:39;5.85;;;4.72;;
28934;SDS011;16044;52.726;-2.108;2023-06-22T09:28:10;5.70;;;4.75;;
28934;SDS011;16044;52.726;-2.108;2023-06-22T09:30:40;6.00;;;4.80;;
28934;SDS011;16044;52.726;-2.108;2023-06-22T09:33:12;7.28;;;4.85;;
28934;SDS011;16044;52.726;-2.108;2023-06-22T09:35:45;10.25;;;5.40;;
28934;SDS011;16044;52.726;-2.108;2023-06-22T09:38:17;8.05;;;4.70;;
28934;SDS011;16044;52.726;-2.108;2023-06-22T09:40:47;6.80;;;4.93;;
28934;SDS011;16044;52.726;-2.108;2023-06-22T09:43:18;8.05;;;5.15;;
28934;SDS011;16044;52.726;-2.108;2023-06-22T09:45:48;7.57;;;5.35;;
28934;SDS011;16044;52.726;-2.108;2023-06-22T09:48:18;5.50;;;4.53;;
28934;SDS011;16044;52.726;-2.108;2023-06-22T09:50:51;9.30;;;5.40;;
28934;SDS011;16044;52.726;-2.108;2023-06-22T09:53:22;5.57;;;4.78;;
28934;SDS011;16044;52.726;-2.108;2023-06-22T09:55:52;9.50;;;5.75;;
28934;SDS011;16044;52.726;-2.108;2023-06-22T09:58:23;7.55;;;5.63;;
28934;SDS011;16044;52.726;-2.108;2023-06-22T10:00:54;9.25;;;5.72;;
28934;SDS011;16044;52.726;-2.108;2023-06-22T10:03:24;9.13;;;5.72;;
28934;SDS011;16044;52.726;-2.108;2023-06-22T10:05:57;7.15;;;5.38;;
28934;SDS011;16044;52.726;-2.108;2023-06-22T10:08:28;8.00;;;5.63;;
28934;SDS011;16044;52.726;-2.108;2023-06-22T10:10:58;8.75;;;5.38;;
28934;SDS011;16044;52.726;-2.108;2023-06-22T10:13:28;11.50;;;6.43;;
28934;SDS011;16044;52.726;-2.108;2023-06-22T10:15:59;9.00;;;5.43;;
28934;SDS011;16044;52.726;-2.108;2023-06-22T10:18:29;8.73;;;6.55;;
28934;SDS011;16044;52.726;-2.108;2023-06-22T10:21:02;9.15;;;6.10;;
28934;SDS011;16044;52.726;-2.108;2023-06-22T10:23:33;10.93;;;5.97;;
28934;SDS011;16044;52.726;-2.108;2023-06-22T10:26:03;11.77;;;5.75;;
28934;SDS011;16044;52.726;-2.108;2023-06-22T10:28:34;7.15;;;5.88;;
28934;SDS011;16044;52.726;-2.108;2023-06-22T10:31:04;8.13;;;5.90;;
28934;SDS011;16044;52.726;-2.108;2023-06-22T10:33:35;9.90;;;5.80;;
28934;SDS011;16044;52.726;-2.108;2023-06-22T10:36:10;8.70;;;6.05;;
28934;SDS011;16044;52.726;-2.108;2023-06-22T10:38:41;13.25;;;6.32;;
28934;SDS011;16044;52.726;-2.108;2023-06-22T10:41:12;21.10;;;6.03;;
28934;SDS011;16044;52.726;-2.108;2023-06-22T10:43:42;9.02;;;5.82;;
28934;SDS011;16044;52.726;-2.108;2023-06-22T10:46:13;14.50;;;7.20;;
28934;SDS011;16044;52.726;-2.108;2023-06-22T10:48:43;10.35;;;6.00;;
28934;SDS011;16044;52.726;-2.108;2023-06-22T10:51:16;11.48;;;6.65;;
28934;SDS011;16044;52.726;-2.108;2023-06-22T10:53:46;7.90;;;5.03;;
28934;SDS011;16044;52.726;-2.108;2023-06-22T10:56:17;8.68;;;6.13;;
28934;SDS011;16044;52.726;-2.108;2023-06-22T10:58:48;7.70;;;6.25;;
28934;SDS011;16044;52.726;-2.108;2023-06-22T11:01:19;8.40;;;5.72;;
28934;SDS011;16044;52.726;-2.108;2023-06-22T11:03:53;9.83;;;5.90;;
28934;SDS011;16044;52.726;-2.108;2023-06-22T11:06:26;11.13;;;5.60;;
28934;SDS011;16044;52.726;-2.108;2023-06-22T11:08:56;7.40;;;5.50;;
28934;SDS011;16044;52.726;-2.108;2023-06-22T11:11:47;9.25;;;7.10;;
28934;SDS011;16044;52.726;-2.108;2023-06-22T11:14:20;11.85;;;6.53;;
28934;SDS011;16044;52.726;-2.108;2023-06-22T11:16:50;9.85;;;6.30;;
28934;SDS011;16044;52.726;-2.108;2023-06-22T11:19:21;8.20;;;5.57;;
28934;SDS011;16044;52.726;-2.108;2023-06-22T11:21:54;10.75;;;6.28;;
28934;SDS011;16044;52.726;-2.108;2023-06-22T11:24:24;9.60;;;6.05;;
28934;SDS011;16044;52.726;-2.108;2023-06-22T11:26:55;8.80;;;5.80;;
28934;SDS011;16044;52.726;-2.108;2023-06-22T11:29:25;9.10;;;6.68;;
28934;SDS011;16044;52.726;-2.108;2023-06-22T11:32:04;10.90;;;6.78;;
28934;SDS011;16044;52.726;-2.108;2023-06-22T11:34:39;10.07;;;7.07;;
28934;SDS011;16044;52.726;-2.108;2023-06-22T11:37:12;10.05;;;7.00;;
28934;SDS011;16044;52.726;-2.108;2023-06-22T11:39:42;10.18;;;6.85;;
28934;SDS011;16044;52.726;-2.108;2023-06-22T11:42:24;11.27;;;6.72;;
28934;SDS011;16044;52.726;-2.108;2023-06-22T11:44:55;8.52;;;7.40;;
28934;SDS011;16044;52.726;-2.108;2023-06-22T11:47:25;9.50;;;7.47;;
28934;SDS011;16044;52.726;-2.108;2023-06-22T11:49:56;11.30;;;7.32;;
28934;SDS011;16044;52.726;-2.108;2023-06-22T11:52:28;9.05;;;6.95;;
28934;SDS011;16044;52.726;-2.108;2023-06-22T11:54:59;9.75;;;6.85;;
28934;SDS011;16044;52.726;-2.108;2023-06-22T11:57:30;9.63;;;6.55;;
28934;SDS011;16044;52.726;-2.108;2023-06-22T12:00:03;11.15;;;8.88;;
28934;SDS011;16044;52.726;-2.108;2023-06-22T12:02:43;8.63;;;6.75;;
28934;SDS011;16044;52.726;-2.108;2023-06-22T12:05:14;10.60;;;7.30;;
28934;SDS011;16044;52.726;-2.108;2023-06-22T12:07:47;10.45;;;7.00;;
28934;SDS011;16044;52.726;-2.108;2023-06-22T12:10:18;10.30;;;6.95;;
28934;SDS011;16044;52.726;-2.108;2023-06-22T12:12:48;9.30;;;6.55;;
28934;SDS011;16044;52.726;-2.108;2023-06-22T12:15:19;8.75;;;7.10;;
28934;SDS011;16044;52.726;-2.108;2023-06-22T12:17:50;9.73;;;6.53;;
28934;SDS011;16044;52.726;-2.108;2023-06-22T12:20:20;10.40;;;6.60;;
28934;SDS011;16044;52.726;-2.108;2023-06-22T12:22:54;7.97;;;5.50;;
28934;SDS011;16044;52.726;-2.108;2023-06-22T12:25:24;8.02;;;5.97;;
28934;SDS011;16044;52.726;-2.108;2023-06-22T12:27:55;7.43;;;5.55;;
28934;SDS011;16044;52.726;-2.108;2023-06-22T12:30:25;8.07;;;6.03;;
28934;SDS011;16044;52.726;-2.108;2023-06-22T12:32:56;7.68;;;5.90;;
28934;SDS011;16044;52.726;-2.108;2023-06-22T12:35:27;9.07;;;6.20;;
28934;SDS011;16044;52.726;-2.108;2023-06-22T12:38:00;11.10;;;7.88;;
28934;SDS011;16044;52.726;-2.108;2023-06-22T12:40:33;10.32;;;7.85;;
28934;SDS011;16044;52.726;-2.108;2023-06-22T12:43:03;10.85;;;8.65;;
28934;SDS011;16044;52.726;-2.108;2023-06-22T12:45:34;14.30;;;9.55;;
28934;SDS011;16044;52.726;-2.108;2023-06-22T12:48:05;9.05;;;7.13;;
28934;SDS011;16044;52.726;-2.108;2023-06-22T12:50:35;9.00;;;6.50;;
28934;SDS011;16044;52.726;-2.108;2023-06-22T12:53:08;10.45;;;6.18;;
28934;SDS011;16044;52.726;-2.108;2023-06-22T12:55:39;8.48;;;5.07;;
28934;SDS011;16044;52.726;-2.108;2023-06-22T12:58:09;9.70;;;5.13;;
28934;SDS011;16044;52.726;-2.108;2023-06-22T13:00:39;7.97;;;5.80;;
28934;SDS011;16044;52.726;-2.108;2023-06-22T13:03:10;6.70;;;5.05;;
28934;SDS011;16044;52.726;-2.108;2023-06-22T13:05:40;10.30;;;5.75;;
28934;SDS011;16044;52.726;-2.108;2023-06-22T13:08:13;5.90;;;5.15;;
28934;SDS011;16044;52.726;-2.108;2023-06-22T13:10:44;6.05;;;5.05;;
28934;SDS011;16044;52.726;-2.108;2023-06-22T13:13:14;8.35;;;5.50;;
28934;SDS011;16044;52.726;-2.108;2023-06-22T13:15:44;7.43;;;4.90;;
28934;SDS011;16044;52.726;-2.108;2023-06-22T13:18:15;8.48;;;4.68;;
28934;SDS011;16044;52.726;-2.108;2023-06-22T13:20:45;7.35;;;4.53;;
28934;SDS011;16044;52.726;-2.108;2023-06-22T13:23:18;7.38;;;4.68;;
28934;SDS011;16044;52.726;-2.108;2023-06-22T13:25:48;6.22;;;4.45;;
28934;SDS011;16044;52.726;-2.108;2023-06-22T13:28:19;5.95;;;3.85;;
28934;SDS011;16044;52.726;-2.108;2023-06-22T13:30:54;7.57;;;4.75;;
28934;SDS011;16044;52.726;-2.108;2023-06-22T13:33:24;7.57;;;4.28;;
28934;SDS011;16044;52.726;-2.108;2023-06-22T13:35:55;8.93;;;4.75;;
28934;SDS011;16044;52.726;-2.108;2023-06-22T13:38:28;7.20;;;4.50;;
28934;SDS011;16044;52.726;-2.108;2023-06-22T13:40:59;6.15;;;4.05;;
28934;SDS011;16044;52.726;-2.108;2023-06-22T13:43:29;4.88;;;4.18;;
28934;SDS011;16044;52.726;-2.108;2023-06-22T13:45:59;5.20;;;3.65;;
28934;SDS011;16044;52.726;-2.108;2023-06-22T13:48:30;5.47;;;4.20;;
28934;SDS011;16044;52.726;-2.108;2023-06-22T13:51:00;7.40;;;4.25;;
28934;SDS011;16044;52.726;-2.108;2023-06-22T13:53:33;6.22;;;3.80;;
28934;SDS011;16044;52.726;-2.108;2023-06-22T13:56:03;6.28;;;3.85;;
28934;SDS011;16044;52.726;-2.108;2023-06-22T13:58:34;6.57;;;4.18;;
28934;SDS011;16044;52.726;-2.108;2023-06-22T14:01:04;7.68;;;4.47;;
28934;SDS011;16044;52.726;-2.108;2023-06-22T14:03:42;5.07;;;4.22;;
28934;SDS011;16044;52.726;-2.108;2023-06-22T14:06:13;5.65;;;4.22;;
28934;SDS011;16044;52.726;-2.108;2023-06-22T14:08:46;6.82;;;3.90;;
28934;SDS011;16044;52.726;-2.108;2023-06-22T14:11:17;4.78;;;3.67;;
28934;SDS011;16044;52.726;-2.108;2023-06-22T14:13:47;4.80;;;3.67;;
28934;SDS011;16044;52.726;-2.108;2023-06-22T14:16:18;4.53;;;3.67;;
28934;SDS011;16044;52.726;-2.108;2023-06-22T14:18:49;7.28;;;3.83;;
28934;SDS011;16044;52.726;-2.108;2023-06-22T14:21:22;7.10;;;3.50;;
28934;SDS011;16044;52.726;-2.108;2023-06-22T14:23:55;4.63;;;3.88;;
28934;SDS011;16044;52.726;-2.108;2023-06-22T14:26:25;6.30;;;3.65;;
28934;SDS011;16044;52.726;-2.108;2023-06-22T14:28:55;4.97;;;3.42;;
28934;SDS011;16044;52.726;-2.108;2023-06-22T14:31:26;5.85;;;3.72;;
28934;SDS011;16044;52.726;-2.108;2023-06-22T14:33:56;4.90;;;3.78;;
28934;SDS011;16044;52.726;-2.108;2023-06-22T14:36:27;5.18;;;3.30;;
28934;SDS011;16044;52.726;-2.108;2023-06-22T14:39:00;5.72;;;3.50;;
28934;SDS011;16044;52.726;-2.108;2023-06-22T14:41:30;4.47;;;3.30;;
28934;SDS011;16044;52.726;-2.108;2023-06-22T14:44:01;6.65;;;3.40;;
28934;SDS011;16044;52.726;-2.108;2023-06-22T14:46:31;6.70;;;3.55;;
28934;SDS011;16044;52.726;-2.108;2023-06-22T14:49:01;7.53;;;3.20;;
28934;SDS011;16044;52.726;-2.108;2023-06-22T14:51:32;4.30;;;3.05;;
28934;SDS011;16044;52.726;-2.108;2023-06-22T14:54:05;8.95;;;4.05;;
28934;SDS011;16044;52.726;-2.108;2023-06-22T14:56:36;3.92;;;2.90;;